sensor_id;sensor_type;location;lat;lon;timestamp;P1;durP1;ratioP1;P2;durP2;ratioP2
30888;SDS011;51092;50.874;7.024;2023-07-16T00:00:24;5.20;;;1.55;;
30888;SDS011;51092;50.874;7.024;2023-07-16T00:01:27;2.97;;;1.50;;
30888;SDS011;51092;50.874;7.024;2023-07-16T00:02:28;3.05;;;1.55;;
30888;SDS011;51092;50.874;7.024;2023-07-16T00:03:31;2.95;;;1.63;;
30888;SDS011;51092;50.874;7.024;2023-07-16T00:04:32;6.18;;;1.80;;
30888;SDS011;51092;50.874;7.024;2023-07-16T00:05:35;4.63;;;1.75;;
30888;SDS011;51092;50.874;7.024;2023-07-16T00:06:38;3.88;;;1.40;;
30888;SDS011;51092;50.874;7.024;2023-07-16T00:07:42;4.43;;;1.92;;
30888;SDS011;51092;50.874;7.024;2023-07-16T00:08:43;4.45;;;2.03;;
30888;SDS011;51092;50.874;7.024;2023-07-16T00:09:45;8.23;;;1.90;;
30888;SDS011;51092;50.874;7.024;2023-07-16T00:10:46;3.85;;;1.52;;
30888;SDS011;51092;50.874;7.024;2023-07-16T00:11:48;5.78;;;1.38;;
30888;SDS011;51092;50.874;7.024;2023-07-16T00:12:49;3.63;;;1.63;;
30888;SDS011;51092;50.874;7.024;2023-07-16T00:13:51;5.18;;;2.03;;
30888;SDS011;51092;50.874;7.024;2023-07-16T00:14:52;3.15;;;1.33;;
30888;SDS011;51092;50.874;7.024;2023-07-16T00:15:56;5.15;;;2.13;;
30888;SDS011;51092;50.874;7.024;2023-07-16T00:16:58;5.38;;;2.42;;
30888;SDS011;51092;50.874;7.024;2023-07-16T00:18:00;5.75;;;2.42;;
30888;SDS011;51092;50.874;7.024;2023-07-16T00:19:02;3.78;;;1.60;;
30888;SDS011;51092;50.874;7.024;2023-07-16T00:20:06;4.55;;;1.60;;
30888;SDS011;51092;50.874;7.024;2023-07-16T00:21:09;3.30;;;1.48;;
30888;SDS011;51092;50.874;7.024;2023-07-16T00:22:11;5.50;;;1.83;;
30888;SDS011;51092;50.874;7.024;2023-07-16T00:23:13;4.60;;;1.50;;
30888;SDS011;51092;50.874;7.024;2023-07-16T00:24:15;5.30;;;1.55;;
30888;SDS011;51092;50.874;7.024;2023-07-16T00:25:17;2.60;;;1.52;;
30888;SDS011;51092;50.874;7.024;2023-07-16T00:26:18;3.85;;;2.03;;
30888;SDS011;51092;50.874;7.024;2023-07-16T00:27:20;3.53;;;1.65;;
30888;SDS011;51092;50.874;7.024;2023-07-16T00:28:21;7.30;;;2.20;;
30888;SDS011;51092;50.874;7.024;2023-07-16T00:29:23;3.00;;;1.52;;
30888;SDS011;51092;50.874;7.024;2023-07-16T00:30:25;4.78;;;1.90;;
30888;SDS011;51092;50.874;7.024;2023-07-16T00:31:29;3.38;;;1.63;;
30888;SDS011;51092;50.874;7.024;2023-07-16T00:32:31;5.50;;;2.03;;
30888;SDS011;51092;50.874;7.024;2023-07-16T00:33:33;5.25;;;1.75;;
30888;SDS011;51092;50.874;7.024;2023-07-16T00:34:35;2.97;;;1.60;;
30888;SDS011;51092;50.874;7.024;2023-07-16T00:35:37;4.10;;;1.90;;
30888;SDS011;51092;50.874;7.024;2023-07-16T00:36:39;3.63;;;1.67;;
30888;SDS011;51092;50.874;7.024;2023-07-16T00:37:41;4.30;;;1.75;;
30888;SDS011;51092;50.874;7.024;2023-07-16T00:38:43;2.53;;;1.85;;
30888;SDS011;51092;50.874;7.024;2023-07-16T00:39:46;2.92;;;1.67;;
30888;SDS011;51092;50.874;7.024;2023-07-16T00:40:48;5.55;;;1.80;;
30888;SDS011;51092;50.874;7.024;2023-07-16T00:41:51;7.28;;;2.13;;
30888;SDS011;51092;50.874;7.024;2023-07-16T00:42:52;4.88;;;1.80;;
30888;SDS011;51092;50.874;7.024;2023-07-16T00:43:54;5.25;;;1.95;;
30888;SDS011;51092;50.874;7.024;2023-07-16T00:44:55;3.85;;;1.88;;
30888;SDS011;51092;50.874;7.024;2023-07-16T00:45:57;5.10;;;1.75;;
30888;SDS011;51092;50.874;7.024;2023-07-16T00:46:59;3.72;;;1.33;;
30888;SDS011;51092;50.874;7.024;2023-07-16T00:48:03;4.60;;;2.10;;
30888;SDS011;51092;50.874;7.024;2023-07-16T00:49:06;6.05;;;1.50;;
30888;SDS011;51092;50.874;7.024;2023-07-16T00:50:09;6.07;;;1.35;;
30888;SDS011;51092;50.874;7.024;2023-07-16T00:51:11;4.35;;;1.80;;
30888;SDS011;51092;50.874;7.024;2023-07-16T00:52:16;5.03;;;1.63;;
30888;SDS011;51092;50.874;7.024;2023-07-16T00:53:18;4.55;;;1.95;;
30888;SDS011;51092;50.874;7.024;2023-07-16T00:54:22;2.70;;;1.33;;
30888;SDS011;51092;50.874;7.024;2023-07-16T00:55:24;3.85;;;1.30;;
30888;SDS011;51092;50.874;7.024;2023-07-16T00:56:26;5.20;;;1.88;;
30888;SDS011;51092;50.874;7.024;2023-07-16T00:57:28;4.75;;;1.83;;
30888;SDS011;51092;50.874;7.024;2023-07-16T00:58:32;5.57;;;1.60;;
30888;SDS011;51092;50.874;7.024;2023-07-16T00:59:33;3.47;;;1.60;;
30888;SDS011;51092;50.874;7.024;2023-07-16T01:00:36;4.38;;;1.63;;
30888;SDS011;51092;50.874;7.024;2023-07-16T01:01:39;3.22;;;1.30;;
30888;SDS011;51092;50.874;7.024;2023-07-16T01:02:43;5.53;;;1.67;;
30888;SDS011;51092;50.874;7.024;2023-07-16T01:03:44;8.43;;;1.75;;
30888;SDS011;51092;50.874;7.024;2023-07-16T01:04:47;7.95;;;1.95;;
30888;SDS011;51092;50.874;7.024;2023-07-16T01:05:49;3.35;;;1.70;;
30888;SDS011;51092;50.874;7.024;2023-07-16T01:06:57;6.85;;;2.05;;
30888;SDS011;51092;50.874;7.024;2023-07-16T01:08:07;4.20;;;1.30;;
30888;SDS011;51092;50.874;7.024;2023-07-16T01:09:13;4.47;;;1.58;;
30888;SDS011;51092;50.874;7.024;2023-07-16T01:10:16;6.00;;;1.63;;
30888;SDS011;51092;50.874;7.024;2023-07-16T01:11:19;4.50;;;1.35;;
30888;SDS011;51092;50.874;7.024;2023-07-16T01:12:20;5.05;;;1.80;;
30888;SDS011;51092;50.874;7.024;2023-07-16T01:13:23;4.28;;;1.80;;
30888;SDS011;51092;50.874;7.024;2023-07-16T01:14:26;3.22;;;1.77;;
30888;SDS011;51092;50.874;7.024;2023-07-16T01:15:31;3.97;;;1.70;;
30888;SDS011;51092;50.874;7.024;2023-07-16T01:16:32;3.85;;;1.90;;
30888;SDS011;51092;50.874;7.024;2023-07-16T01:17:35;4.05;;;1.77;;
30888;SDS011;51092;50.874;7.024;2023-07-16T01:18:38;7.63;;;1.45;;
30888;SDS011;51092;50.874;7.024;2023-07-16T01:19:39;5.60;;;1.80;;
30888;SDS011;51092;50.874;7.024;2023-07-16T01:20:42;3.40;;;1.40;;
30888;SDS011;51092;50.874;7.024;2023-07-16T01:21:45;4.53;;;1.70;;
30888;SDS011;51092;50.874;7.024;2023-07-16T01:23:01;4.22;;;1.90;;
30888;SDS011;51092;50.874;7.024;2023-07-16T01:24:23;4.88;;;1.85;;
30888;SDS011;51092;50.874;7.024;2023-07-16T01:25:46;5.35;;;1.80;;
30888;SDS011;51092;50.874;7.024;2023-07-16T01:27:04;6.97;;;2.53;;
30888;SDS011;51092;50.874;7.024;2023-07-16T01:28:22;3.22;;;1.48;;
30888;SDS011;51092;50.874;7.024;2023-07-16T01:29:43;4.43;;;1.50;;
30888;SDS011;51092;50.874;7.024;2023-07-16T01:30:48;7.50;;;1.98;;
30888;SDS011;51092;50.874;7.024;2023-07-16T01:31:52;3.35;;;1.40;;
30888;SDS011;51092;50.874;7.024;2023-07-16T01:32:56;5.13;;;2.03;;
30888;SDS011;51092;50.874;7.024;2023-07-16T01:33:59;7.03;;;1.65;;
30888;SDS011;51092;50.874;7.024;2023-07-16T01:35:04;4.72;;;2.25;;
30888;SDS011;51092;50.874;7.024;2023-07-16T01:36:07;3.15;;;1.38;;
30888;SDS011;51092;50.874;7.024;2023-07-16T01:37:08;6.60;;;1.90;;
30888;SDS011;51092;50.874;7.024;2023-07-16T01:38:11;3.30;;;1.70;;
30888;SDS011;51092;50.874;7.024;2023-07-16T01:39:13;8.27;;;2.05;;
30888;SDS011;51092;50.874;7.024;2023-07-16T01:40:15;5.05;;;1.83;;
30888;SDS011;51092;50.874;7.024;2023-07-16T01:41:17;6.47;;;1.80;;
30888;SDS011;51092;50.874;7.024;2023-07-16T01:42:19;6.80;;;1.88;;
30888;SDS011;51092;50.874;7.024;2023-07-16T01:43:22;3.95;;;1.83;;
30888;SDS011;51092;50.874;7.024;2023-07-16T01:44:23;5.15;;;2.17;;
30888;SDS011;51092;50.874;7.024;2023-07-16T01:45:27;3.88;;;1.65;;
30888;SDS011;51092;50.874;7.024;2023-07-16T01:46:29;5.60;;;1.80;;
30888;SDS011;51092;50.874;7.024;2023-07-16T01:47:33;9.20;;;2.17;;
30888;SDS011;51092;50.874;7.024;2023-07-16T01:48:40;5.60;;;1.73;;
30888;SDS011;51092;50.874;7.024;2023-07-16T01:49:43;6.38;;;1.88;;
30888;SDS011;51092;50.874;7.024;2023-07-16T01:50:44;3.28;;;1.95;;
30888;SDS011;51092;50.874;7.024;2023-07-16T01:51:47;6.95;;;1.67;;
30888;SDS011;51092;50.874;7.024;2023-07-16T01:52:48;4.55;;;1.65;;
30888;SDS011;51092;50.874;7.024;2023-07-16T01:53:51;5.35;;;1.90;;
30888;SDS011;51092;50.874;7.024;2023-07-16T01:54:52;7.88;;;2.20;;
30888;SDS011;51092;50.874;7.024;2023-07-16T01:55:55;3.88;;;1.75;;
30888;SDS011;51092;50.874;7.024;2023-07-16T01:56:56;5.55;;;2.10;;
30888;SDS011;51092;50.874;7.024;2023-07-16T01:57:59;7.45;;;2.15;;
30888;SDS011;51092;50.874;7.024;2023-07-16T01:59:00;10.15;;;1.92;;
30888;SDS011;51092;50.874;7.024;2023-07-16T02:00:03;5.75;;;1.92;;
30888;SDS011;51092;50.874;7.024;2023-07-16T02:01:08;8.35;;;1.90;;
30888;SDS011;51092;50.874;7.024;2023-07-16T02:02:10;4.65;;;2.13;;
30888;SDS011;51092;50.874;7.024;2023-07-16T02:03:12;7.90;;;2.20;;
30888;SDS011;51092;50.874;7.024;2023-07-16T02:04:14;5.32;;;1.48;;
30888;SDS011;51092;50.874;7.024;2023-07-16T02:05:16;5.05;;;1.80;;
30888;SDS011;51092;50.874;7.024;2023-07-16T02:06:18;4.68;;;1.50;;
30888;SDS011;51092;50.874;7.024;2023-07-16T02:07:20;3.50;;;1.77;;
30888;SDS011;51092;50.874;7.024;2023-07-16T02:08:24;6.53;;;1.80;;
30888;SDS011;51092;50.874;7.024;2023-07-16T02:09:25;5.93;;;1.90;;
30888;SDS011;51092;50.874;7.024;2023-07-16T02:10:28;5.93;;;2.10;;
30888;SDS011;51092;50.874;7.024;2023-07-16T02:11:29;3.92;;;1.48;;
30888;SDS011;51092;50.874;7.024;2023-07-16T02:12:32;4.88;;;1.70;;
30888;SDS011;51092;50.874;7.024;2023-07-16T02:13:33;4.82;;;1.75;;
30888;SDS011;51092;50.874;7.024;2023-07-16T02:14:36;3.53;;;1.70;;
30888;SDS011;51092;50.874;7.024;2023-07-16T02:15:37;6.22;;;2.00;;
30888;SDS011;51092;50.874;7.024;2023-07-16T02:16:42;3.05;;;1.98;;
30888;SDS011;51092;50.874;7.024;2023-07-16T02:17:43;7.63;;;1.95;;
30888;SDS011;51092;50.874;7.024;2023-07-16T02:18:46;4.60;;;1.75;;
30888;SDS011;51092;50.874;7.024;2023-07-16T02:19:47;5.43;;;1.73;;
30888;SDS011;51092;50.874;7.024;2023-07-16T02:20:50;5.07;;;2.05;;
30888;SDS011;51092;50.874;7.024;2023-07-16T02:21:51;5.38;;;1.55;;
30888;SDS011;51092;50.874;7.024;2023-07-16T02:22:55;3.47;;;1.50;;
30888;SDS011;51092;50.874;7.024;2023-07-16T02:23:56;6.78;;;1.75;;
30888;SDS011;51092;50.874;7.024;2023-07-16T02:24:58;7.35;;;1.77;;
30888;SDS011;51092;50.874;7.024;2023-07-16T02:26:00;4.82;;;1.98;;
30888;SDS011;51092;50.874;7.024;2023-07-16T02:27:02;3.08;;;2.03;;
30888;SDS011;51092;50.874;7.024;2023-07-16T02:28:04;2.85;;;1.40;;
30888;SDS011;51092;50.874;7.024;2023-07-16T02:29:06;3.53;;;1.60;;
30888;SDS011;51092;50.874;7.024;2023-07-16T02:30:09;4.80;;;1.52;;
30888;SDS011;51092;50.874;7.024;2023-07-16T02:31:12;3.15;;;1.52;;
30888;SDS011;51092;50.874;7.024;2023-07-16T02:32:15;5.47;;;2.22;;
30888;SDS011;51092;50.874;7.024;2023-07-16T02:33:17;4.93;;;1.85;;
30888;SDS011;51092;50.874;7.024;2023-07-16T02:34:19;7.60;;;1.88;;
30888;SDS011;51092;50.874;7.024;2023-07-16T02:35:22;4.40;;;1.85;;
30888;SDS011;51092;50.874;7.024;2023-07-16T02:36:23;3.95;;;1.88;;
30888;SDS011;51092;50.874;7.024;2023-07-16T02:37:25;5.75;;;2.35;;
30888;SDS011;51092;50.874;7.024;2023-07-16T02:38:26;5.93;;;1.77;;
30888;SDS011;51092;50.874;7.024;2023-07-16T02:39:28;4.18;;;1.80;;
30888;SDS011;51092;50.874;7.024;2023-07-16T02:40:29;5.30;;;1.90;;
30888;SDS011;51092;50.874;7.024;2023-07-16T02:41:32;3.35;;;1.60;;
30888;SDS011;51092;50.874;7.024;2023-07-16T02:42:33;4.30;;;1.85;;
30888;SDS011;51092;50.874;7.024;2023-07-16T02:43:36;5.00;;;1.80;;
30888;SDS011;51092;50.874;7.024;2023-07-16T02:44:37;6.97;;;2.00;;
30888;SDS011;51092;50.874;7.024;2023-07-16T02:45:44;3.83;;;1.60;;
30888;SDS011;51092;50.874;7.024;2023-07-16T02:46:45;8.95;;;2.53;;
30888;SDS011;51092;50.874;7.024;2023-07-16T02:47:49;4.25;;;2.17;;
30888;SDS011;51092;50.874;7.024;2023-07-16T02:48:51;4.97;;;1.73;;
30888;SDS011;51092;50.874;7.024;2023-07-16T02:49:53;7.00;;;2.05;;
30888;SDS011;51092;50.874;7.024;2023-07-16T02:50:54;5.32;;;1.90;;
30888;SDS011;51092;50.874;7.024;2023-07-16T02:51:57;7.63;;;2.30;;
30888;SDS011;51092;50.874;7.024;2023-07-16T02:52:58;5.45;;;1.80;;
30888;SDS011;51092;50.874;7.024;2023-07-16T02:54:01;4.50;;;1.70;;
30888;SDS011;51092;50.874;7.024;2023-07-16T02:55:03;9.30;;;1.77;;
30888;SDS011;51092;50.874;7.024;2023-07-16T02:56:06;7.45;;;2.10;;
30888;SDS011;51092;50.874;7.024;2023-07-16T02:57:07;6.45;;;1.67;;
30888;SDS011;51092;50.874;7.024;2023-07-16T02:58:10;5.03;;;1.58;;
30888;SDS011;51092;50.874;7.024;2023-07-16T02:59:11;4.60;;;1.63;;
30888;SDS011;51092;50.874;7.024;2023-07-16T03:00:13;3.83;;;1.60;;
30888;SDS011;51092;50.874;7.024;2023-07-16T03:01:15;4.53;;;1.77;;
30888;SDS011;51092;50.874;7.024;2023-07-16T03:02:17;5.53;;;2.10;;
30888;SDS011;51092;50.874;7.024;2023-07-16T03:03:19;6.90;;;1.80;;
30888;SDS011;51092;50.874;7.024;2023-07-16T03:04:21;5.78;;;2.10;;
30888;SDS011;51092;50.874;7.024;2023-07-16T03:05:23;3.78;;;1.67;;
30888;SDS011;51092;50.874;7.024;2023-07-16T03:06:25;3.38;;;1.70;;
30888;SDS011;51092;50.874;7.024;2023-07-16T03:07:27;5.28;;;1.67;;
30888;SDS011;51092;50.874;7.024;2023-07-16T03:08:30;3.70;;;1.65;;
30888;SDS011;51092;50.874;7.024;2023-07-16T03:09:32;4.43;;;1.52;;
30888;SDS011;51092;50.874;7.024;2023-07-16T03:10:34;5.50;;;1.65;;
30888;SDS011;51092;50.874;7.024;2023-07-16T03:11:36;6.30;;;1.80;;
30888;SDS011;51092;50.874;7.024;2023-07-16T03:12:38;6.72;;;2.10;;
30888;SDS011;51092;50.874;7.024;2023-07-16T03:13:40;5.60;;;1.73;;
30888;SDS011;51092;50.874;7.024;2023-07-16T03:14:43;5.80;;;2.08;;
30888;SDS011;51092;50.874;7.024;2023-07-16T03:15:45;7.97;;;2.35;;
30888;SDS011;51092;50.874;7.024;2023-07-16T03:16:47;6.00;;;1.60;;
30888;SDS011;51092;50.874;7.024;2023-07-16T03:17:48;6.15;;;1.90;;
30888;SDS011;51092;50.874;7.024;2023-07-16T03:18:52;4.60;;;1.80;;
30888;SDS011;51092;50.874;7.024;2023-07-16T03:19:53;7.03;;;2.20;;
30888;SDS011;51092;50.874;7.024;2023-07-16T03:20:55;3.97;;;1.80;;
30888;SDS011;51092;50.874;7.024;2023-07-16T03:21:57;6.28;;;1.88;;
30888;SDS011;51092;50.874;7.024;2023-07-16T03:22:59;6.32;;;2.03;;
30888;SDS011;51092;50.874;7.024;2023-07-16T03:24:01;4.13;;;2.00;;
30888;SDS011;51092;50.874;7.024;2023-07-16T03:25:04;6.53;;;1.60;;
30888;SDS011;51092;50.874;7.024;2023-07-16T03:26:06;5.85;;;1.80;;
30888;SDS011;51092;50.874;7.024;2023-07-16T03:27:07;7.53;;;1.88;;
30888;SDS011;51092;50.874;7.024;2023-07-16T03:28:08;5.75;;;1.85;;
30888;SDS011;51092;50.874;7.024;2023-07-16T03:29:09;3.42;;;1.90;;
30888;SDS011;51092;50.874;7.024;2023-07-16T03:30:12;4.65;;;1.70;;
30888;SDS011;51092;50.874;7.024;2023-07-16T03:31:13;8.88;;;1.92;;
30888;SDS011;51092;50.874;7.024;2023-07-16T03:32:16;7.43;;;2.08;;
30888;SDS011;51092;50.874;7.024;2023-07-16T03:33:17;4.55;;;1.73;;
30888;SDS011;51092;50.874;7.024;2023-07-16T03:34:21;6.95;;;1.73;;
30888;SDS011;51092;50.874;7.024;2023-07-16T03:35:24;5.80;;;2.00;;
30888;SDS011;51092;50.874;7.024;2023-07-16T03:36:27;4.40;;;1.98;;
30888;SDS011;51092;50.874;7.024;2023-07-16T03:37:30;7.55;;;2.03;;
30888;SDS011;51092;50.874;7.024;2023-07-16T03:38:31;6.57;;;2.08;;
30888;SDS011;51092;50.874;7.024;2023-07-16T03:39:34;3.83;;;1.60;;
30888;SDS011;51092;50.874;7.024;2023-07-16T03:40:35;7.18;;;1.92;;
30888;SDS011;51092;50.874;7.024;2023-07-16T03:41:37;6.45;;;2.10;;
30888;SDS011;51092;50.874;7.024;2023-07-16T03:42:39;7.78;;;2.25;;
30888;SDS011;51092;50.874;7.024;2023-07-16T03:43:40;8.00;;;2.13;;
30888;SDS011;51092;50.874;7.024;2023-07-16T03:44:42;9.73;;;2.70;;
30888;SDS011;51092;50.874;7.024;2023-07-16T03:45:43;6.13;;;2.45;;
30888;SDS011;51092;50.874;7.024;2023-07-16T03:46:45;6.82;;;1.80;;
30888;SDS011;51092;50.874;7.024;2023-07-16T03:47:47;3.83;;;1.90;;
30888;SDS011;51092;50.874;7.024;2023-07-16T03:48:50;5.63;;;2.10;;
30888;SDS011;51092;50.874;7.024;2023-07-16T03:49:55;7.05;;;2.20;;
30888;SDS011;51092;50.874;7.024;2023-07-16T03:50:57;2.72;;;1.38;;
30888;SDS011;51092;50.874;7.024;2023-07-16T03:51:58;7.55;;;2.25;;
30888;SDS011;51092;50.874;7.024;2023-07-16T03:53:00;5.05;;;1.80;;
30888;SDS011;51092;50.874;7.024;2023-07-16T03:54:03;6.50;;;2.22;;
30888;SDS011;51092;50.874;7.024;2023-07-16T03:55:05;5.82;;;2.22;;
30888;SDS011;51092;50.874;7.024;2023-07-16T03:56:07;5.00;;;1.73;;
30888;SDS011;51092;50.874;7.024;2023-07-16T03:57:10;4.00;;;1.73;;
30888;SDS011;51092;50.874;7.024;2023-07-16T03:58:11;9.05;;;2.85;;
30888;SDS011;51092;50.874;7.024;2023-07-16T03:59:14;5.35;;;2.05;;
30888;SDS011;51092;50.874;7.024;2023-07-16T04:00:16;5.60;;;2.08;;
30888;SDS011;51092;50.874;7.024;2023-07-16T04:01:18;9.68;;;2.13;;
30888;SDS011;51092;50.874;7.024;2023-07-16T04:02:20;11.23;;;2.05;;
30888;SDS011;51092;50.874;7.024;2023-07-16T04:03:22;4.10;;;1.88;;
30888;SDS011;51092;50.874;7.024;2023-07-16T04:04:24;5.93;;;2.13;;
30888;SDS011;51092;50.874;7.024;2023-07-16T04:05:28;7.80;;;2.03;;
30888;SDS011;51092;50.874;7.024;2023-07-16T04:06:30;4.82;;;1.85;;
30888;SDS011;51092;50.874;7.024;2023-07-16T04:07:32;2.60;;;1.73;;
30888;SDS011;51092;50.874;7.024;2023-07-16T04:08:34;8.02;;;2.20;;
30888;SDS011;51092;50.874;7.024;2023-07-16T04:09:36;5.72;;;1.85;;
30888;SDS011;51092;50.874;7.024;2023-07-16T04:10:38;5.22;;;2.15;;
30888;SDS011;51092;50.874;7.024;2023-07-16T04:11:41;6.38;;;2.05;;
30888;SDS011;51092;50.874;7.024;2023-07-16T04:12:42;11.88;;;2.83;;
30888;SDS011;51092;50.874;7.024;2023-07-16T04:13:45;4.57;;;2.22;;
30888;SDS011;51092;50.874;7.024;2023-07-16T04:14:47;6.82;;;1.83;;
30888;SDS011;51092;50.874;7.024;2023-07-16T04:15:49;5.20;;;1.88;;
30888;SDS011;51092;50.874;7.024;2023-07-16T04:16:53;7.68;;;2.05;;
30888;SDS011;51092;50.874;7.024;2023-07-16T04:17:56;4.65;;;1.98;;
30888;SDS011;51092;50.874;7.024;2023-07-16T04:18:57;6.40;;;2.25;;
30888;SDS011;51092;50.874;7.024;2023-07-16T04:20:00;4.93;;;1.80;;
30888;SDS011;51092;50.874;7.024;2023-07-16T04:21:03;6.30;;;1.95;;
30888;SDS011;51092;50.874;7.024;2023-07-16T04:22:05;8.38;;;2.47;;
30888;SDS011;51092;50.874;7.024;2023-07-16T04:23:06;4.90;;;2.08;;
30888;SDS011;51092;50.874;7.024;2023-07-16T04:24:08;5.75;;;1.90;;
30888;SDS011;51092;50.874;7.024;2023-07-16T04:25:09;6.68;;;2.10;;
30888;SDS011;51092;50.874;7.024;2023-07-16T04:26:11;6.47;;;2.38;;
30888;SDS011;51092;50.874;7.024;2023-07-16T04:27:42;4.22;;;2.25;;
30888;SDS011;51092;50.874;7.024;2023-07-16T04:28:45;7.32;;;2.33;;
30888;SDS011;51092;50.874;7.024;2023-07-16T04:29:46;5.38;;;2.15;;
30888;SDS011;51092;50.874;7.024;2023-07-16T04:30:49;6.72;;;2.30;;
30888;SDS011;51092;50.874;7.024;2023-07-16T04:31:51;6.25;;;1.98;;
30888;SDS011;51092;50.874;7.024;2023-07-16T04:32:53;6.05;;;1.90;;
30888;SDS011;51092;50.874;7.024;2023-07-16T04:33:55;3.80;;;2.05;;
30888;SDS011;51092;50.874;7.024;2023-07-16T04:34:57;9.27;;;1.98;;
30888;SDS011;51092;50.874;7.024;2023-07-16T04:35:59;6.30;;;2.00;;
30888;SDS011;51092;50.874;7.024;2023-07-16T04:37:01;7.30;;;2.05;;
30888;SDS011;51092;50.874;7.024;2023-07-16T04:38:03;6.55;;;2.13;;
30888;SDS011;51092;50.874;7.024;2023-07-16T04:39:06;5.15;;;2.20;;
30888;SDS011;51092;50.874;7.024;2023-07-16T04:40:08;7.72;;;2.10;;
30888;SDS011;51092;50.874;7.024;2023-07-16T04:41:10;7.28;;;2.58;;
30888;SDS011;51092;50.874;7.024;2023-07-16T04:42:13;6.88;;;2.35;;
30888;SDS011;51092;50.874;7.024;2023-07-16T04:43:18;7.30;;;2.60;;
30888;SDS011;51092;50.874;7.024;2023-07-16T04:44:20;6.97;;;2.33;;
30888;SDS011;51092;50.874;7.024;2023-07-16T04:45:22;3.70;;;1.77;;
30888;SDS011;51092;50.874;7.024;2023-07-16T04:46:24;7.10;;;2.53;;
30888;SDS011;51092;50.874;7.024;2023-07-16T04:47:27;4.53;;;2.35;;
30888;SDS011;51092;50.874;7.024;2023-07-16T04:48:29;5.00;;;2.17;;
30888;SDS011;51092;50.874;7.024;2023-07-16T04:49:31;9.48;;;2.60;;
30888;SDS011;51092;50.874;7.024;2023-07-16T04:50:34;5.90;;;2.65;;
30888;SDS011;51092;50.874;7.024;2023-07-16T04:51:37;6.50;;;2.58;;
30888;SDS011;51092;50.874;7.024;2023-07-16T04:52:38;6.82;;;2.05;;
30888;SDS011;51092;50.874;7.024;2023-07-16T04:53:40;6.13;;;2.47;;
30888;SDS011;51092;50.874;7.024;2023-07-16T04:54:42;5.53;;;2.10;;
30888;SDS011;51092;50.874;7.024;2023-07-16T04:55:44;6.68;;;1.92;;
30888;SDS011;51092;50.874;7.024;2023-07-16T04:56:46;9.68;;;2.33;;
30888;SDS011;51092;50.874;7.024;2023-07-16T04:57:48;8.38;;;2.17;;
30888;SDS011;51092;50.874;7.024;2023-07-16T04:58:55;7.43;;;2.28;;
30888;SDS011;51092;50.874;7.024;2023-07-16T04:59:57;6.25;;;2.80;;
30888;SDS011;51092;50.874;7.024;2023-07-16T05:00:59;5.13;;;2.40;;
30888;SDS011;51092;50.874;7.024;2023-07-16T05:02:01;9.25;;;2.70;;
30888;SDS011;51092;50.874;7.024;2023-07-16T05:03:03;6.32;;;2.55;;
30888;SDS011;51092;50.874;7.024;2023-07-16T05:04:04;6.20;;;2.33;;
30888;SDS011;51092;50.874;7.024;2023-07-16T05:05:08;6.68;;;2.45;;
30888;SDS011;51092;50.874;7.024;2023-07-16T05:06:09;8.10;;;2.58;;
30888;SDS011;51092;50.874;7.024;2023-07-16T05:07:12;8.02;;;2.58;;
30888;SDS011;51092;50.874;7.024;2023-07-16T05:08:14;10.32;;;3.10;;
30888;SDS011;51092;50.874;7.024;2023-07-16T05:09:16;8.63;;;3.10;;
30888;SDS011;51092;50.874;7.024;2023-07-16T05:10:17;7.03;;;2.33;;
30888;SDS011;51092;50.874;7.024;2023-07-16T05:11:19;7.68;;;2.83;;
30888;SDS011;51092;50.874;7.024;2023-07-16T05:12:20;6.35;;;2.75;;
30888;SDS011;51092;50.874;7.024;2023-07-16T05:13:21;9.48;;;2.95;;
30888;SDS011;51092;50.874;7.024;2023-07-16T05:14:26;7.10;;;2.38;;
30888;SDS011;51092;50.874;7.024;2023-07-16T05:15:29;8.88;;;2.50;;
30888;SDS011;51092;50.874;7.024;2023-07-16T05:16:33;12.70;;;2.70;;
30888;SDS011;51092;50.874;7.024;2023-07-16T05:17:34;8.15;;;3.42;;
30888;SDS011;51092;50.874;7.024;2023-07-16T05:18:35;6.82;;;2.47;;
30888;SDS011;51092;50.874;7.024;2023-07-16T05:19:36;9.02;;;2.75;;
30888;SDS011;51092;50.874;7.024;2023-07-16T05:20:38;8.48;;;2.83;;
30888;SDS011;51092;50.874;7.024;2023-07-16T05:21:41;8.98;;;2.97;;
30888;SDS011;51092;50.874;7.024;2023-07-16T05:22:42;4.20;;;1.88;;
30888;SDS011;51092;50.874;7.024;2023-07-16T05:23:44;10.02;;;2.55;;
30888;SDS011;51092;50.874;7.024;2023-07-16T05:24:46;9.98;;;2.78;;
30888;SDS011;51092;50.874;7.024;2023-07-16T05:25:49;5.25;;;2.70;;
30888;SDS011;51092;50.874;7.024;2023-07-16T05:26:50;10.07;;;2.80;;
30888;SDS011;51092;50.874;7.024;2023-07-16T05:27:55;10.05;;;2.75;;
30888;SDS011;51092;50.874;7.024;2023-07-16T05:28:56;8.93;;;2.38;;
30888;SDS011;51092;50.874;7.024;2023-07-16T05:30:00;8.57;;;2.88;;
30888;SDS011;51092;50.874;7.024;2023-07-16T05:31:02;9.43;;;2.70;;
30888;SDS011;51092;50.874;7.024;2023-07-16T05:32:05;10.10;;;2.60;;
30888;SDS011;51092;50.874;7.024;2023-07-16T05:33:06;6.30;;;2.88;;
30888;SDS011;51092;50.874;7.024;2023-07-16T05:34:08;11.15;;;3.13;;
30888;SDS011;51092;50.874;7.024;2023-07-16T05:35:09;5.65;;;2.40;;
30888;SDS011;51092;50.874;7.024;2023-07-16T05:36:11;5.63;;;3.08;;
30888;SDS011;51092;50.874;7.024;2023-07-16T05:37:13;7.80;;;2.55;;
30888;SDS011;51092;50.874;7.024;2023-07-16T05:38:15;8.88;;;2.92;;
30888;SDS011;51092;50.874;7.024;2023-07-16T05:39:17;10.48;;;3.80;;
30888;SDS011;51092;50.874;7.024;2023-07-16T05:40:19;9.85;;;3.00;;
30888;SDS011;51092;50.874;7.024;2023-07-16T05:41:21;8.65;;;3.20;;
30888;SDS011;51092;50.874;7.024;2023-07-16T05:42:24;6.90;;;3.40;;
30888;SDS011;51092;50.874;7.024;2023-07-16T05:43:25;5.43;;;2.67;;
30888;SDS011;51092;50.874;7.024;2023-07-16T05:44:27;9.32;;;3.10;;
30888;SDS011;51092;50.874;7.024;2023-07-16T05:45:30;5.40;;;2.45;;
30888;SDS011;51092;50.874;7.024;2023-07-16T05:46:32;7.75;;;2.90;;
30888;SDS011;51092;50.874;7.024;2023-07-16T05:47:33;10.63;;;2.95;;
30888;SDS011;51092;50.874;7.024;2023-07-16T05:48:36;6.68;;;2.65;;
30888;SDS011;51092;50.874;7.024;2023-07-16T05:49:37;9.80;;;2.78;;
30888;SDS011;51092;50.874;7.024;2023-07-16T05:50:40;6.80;;;3.03;;
30888;SDS011;51092;50.874;7.024;2023-07-16T05:51:44;7.15;;;3.05;;
30888;SDS011;51092;50.874;7.024;2023-07-16T05:52:46;11.88;;;3.60;;
30888;SDS011;51092;50.874;7.024;2023-07-16T05:53:49;10.55;;;3.25;;
30888;SDS011;51092;50.874;7.024;2023-07-16T05:54:51;8.63;;;3.20;;
30888;SDS011;51092;50.874;7.024;2023-07-16T05:55:52;7.45;;;3.22;;
30888;SDS011;51092;50.874;7.024;2023-07-16T05:56:54;6.65;;;3.17;;
30888;SDS011;51092;50.874;7.024;2023-07-16T05:57:55;9.02;;;3.90;;
30888;SDS011;51092;50.874;7.024;2023-07-16T05:58:57;9.18;;;3.25;;
30888;SDS011;51092;50.874;7.024;2023-07-16T05:59:59;11.23;;;3.88;;
30888;SDS011;51092;50.874;7.024;2023-07-16T06:01:03;9.52;;;3.53;;
30888;SDS011;51092;50.874;7.024;2023-07-16T06:02:04;14.82;;;4.00;;
30888;SDS011;51092;50.874;7.024;2023-07-16T06:03:07;10.18;;;4.28;;
30888;SDS011;51092;50.874;7.024;2023-07-16T06:04:09;10.45;;;4.30;;
30888;SDS011;51092;50.874;7.024;2023-07-16T06:05:12;10.77;;;3.92;;
30888;SDS011;51092;50.874;7.024;2023-07-16T06:06:14;6.10;;;3.47;;
30888;SDS011;51092;50.874;7.024;2023-07-16T06:07:17;11.38;;;4.47;;
30888;SDS011;51092;50.874;7.024;2023-07-16T06:08:18;17.15;;;4.22;;
30888;SDS011;51092;50.874;7.024;2023-07-16T06:09:21;14.15;;;4.15;;
30888;SDS011;51092;50.874;7.024;2023-07-16T06:10:22;7.18;;;3.40;;
30888;SDS011;51092;50.874;7.024;2023-07-16T06:11:25;10.32;;;3.80;;
30888;SDS011;51092;50.874;7.024;2023-07-16T06:12:27;6.65;;;4.15;;
30888;SDS011;51092;50.874;7.024;2023-07-16T06:13:29;9.70;;;3.70;;
30888;SDS011;51092;50.874;7.024;2023-07-16T06:14:31;8.18;;;3.47;;
30888;SDS011;51092;50.874;7.024;2023-07-16T06:15:33;10.82;;;3.97;;
30888;SDS011;51092;50.874;7.024;2023-07-16T06:16:37;11.57;;;3.53;;
30888;SDS011;51092;50.874;7.024;2023-07-16T06:17:38;8.25;;;4.10;;